createdAt,value
2019-05-21T00:00:16.969Z,6.00
2019-05-21T00:01:16.958Z,6.20
2019-05-21T00:02:16.974Z,6.00
2019-05-21T00:03:16.944Z,5.90
2019-05-21T00:04:27.806Z,5.90
2019-05-21T00:05:17.919Z,6.00
2019-05-21T00:06:16.905Z,6.00
2019-05-21T00:07:16.896Z,5.80
2019-05-21T00:08:16.883Z,6.30
2019-05-21T00:09:16.874Z,5.60
2019-05-21T00:10:16.866Z,5.70
2019-05-21T00:11:16.855Z,5.90
2019-05-21T00:12:16.841Z,6.10
2019-05-21T00:13:16.831Z,6.10
2019-05-21T00:14:16.822Z,6.00
2019-05-21T00:15:16.811Z,6.30
2019-05-21T00:16:16.800Z,6.20
2019-05-21T00:17:16.791Z,5.90
2019-05-21T00:18:16.780Z,5.50
2019-05-21T00:19:16.765Z,5.90
2019-05-21T00:20:16.760Z,6.40
2019-05-21T00:21:16.745Z,6.00
2019-05-21T00:22:16.732Z,6.40
2019-05-21T00:23:16.733Z,5.50
2019-05-21T00:24:16.712Z,5.60
2019-05-21T00:25:17.451Z,5.60
2019-05-21T00:26:16.691Z,5.20
2019-05-21T00:27:16.681Z,5.90
2019-05-21T00:28:16.668Z,5.70
2019-05-21T00:29:16.659Z,6.00
2019-05-21T00:30:16.659Z,5.90
2019-05-21T00:31:16.639Z,6.00
2019-05-21T00:32:16.628Z,5.40
2019-05-21T00:33:16.619Z,5.70
2019-05-21T00:34:16.605Z,5.80
2019-05-21T00:35:16.594Z,5.70
2019-05-21T00:36:16.589Z,5.10
2019-05-21T00:37:16.575Z,5.70
2019-05-21T00:38:16.566Z,5.40
2019-05-21T00:39:16.550Z,5.90
2019-05-21T00:40:16.548Z,5.60
2019-05-21T00:41:16.532Z,5.40
2019-05-21T00:42:16.517Z,5.40
2019-05-21T00:43:16.506Z,5.80
2019-05-21T00:44:16.498Z,5.40
2019-05-21T00:45:16.485Z,5.20
2019-05-21T00:46:16.486Z,5.60
2019-05-21T00:47:16.465Z,5.50
2019-05-21T00:48:16.452Z,5.60
2019-05-21T00:49:16.441Z,5.40
2019-05-21T00:50:16.433Z,5.60
2019-05-21T00:51:16.419Z,5.60
2019-05-21T00:52:16.412Z,5.60
2019-05-21T00:53:16.396Z,5.30
2019-05-21T00:54:16.389Z,5.50
2019-05-21T00:55:16.378Z,5.80
2019-05-21T00:56:16.365Z,5.50
2019-05-21T00:57:16.361Z,5.20
2019-05-21T00:58:16.357Z,5.40
2019-05-21T00:59:16.342Z,5.60
2019-05-21T01:00:16.338Z,5.40
2019-05-21T01:01:16.310Z,5.90
2019-05-21T01:02:16.297Z,5.50
2019-05-21T01:03:16.292Z,5.20
2019-05-21T01:04:16.282Z,5.10
2019-05-21T01:05:16.270Z,5.70
2019-05-21T01:06:16.257Z,5.50
2019-05-21T01:07:16.249Z,5.30
2019-05-21T01:08:16.234Z,5.30
2019-05-21T01:09:16.348Z,5.30
2019-05-21T01:10:16.209Z,5.20
2019-05-21T01:11:16.199Z,5.10
2019-05-21T01:12:16.186Z,5.40
2019-05-21T01:13:16.177Z,5.20
2019-05-21T01:14:16.169Z,5.60
2019-05-21T01:15:16.162Z,5.20
2019-05-21T01:16:16.146Z,5.20
2019-05-21T01:17:16.139Z,5.50
2019-05-21T01:18:16.124Z,5.20
2019-05-21T01:19:16.111Z,5.50
2019-05-21T01:20:16.102Z,5.40
2019-05-21T01:21:16.095Z,5.10
2019-05-21T01:22:16.095Z,4.70
2019-05-21T01:23:16.070Z,5.30
2019-05-21T01:24:16.057Z,5.10
2019-05-21T01:25:16.044Z,5.00
2019-05-21T01:26:16.033Z,5.20
2019-05-21T01:27:16.024Z,5.20
2019-05-21T01:28:16.016Z,5.00
2019-05-21T01:29:16.006Z,4.90
2019-05-21T01:30:15.994Z,5.20
2019-05-21T01:31:15.979Z,5.20
2019-05-21T01:32:15.995Z,5.50
2019-05-21T01:33:15.959Z,5.10
2019-05-21T01:34:15.951Z,5.10
2019-05-21T01:35:17.398Z,5.20
2019-05-21T01:36:15.927Z,5.10
2019-05-21T01:37:15.921Z,5.20
2019-05-21T01:38:15.903Z,4.90
2019-05-21T01:39:15.898Z,5.20
2019-05-21T01:40:15.885Z,5.20
2019-05-21T01:41:15.871Z,4.90
2019-05-21T01:42:15.861Z,4.80
2019-05-21T01:43:15.846Z,5.10
2019-05-21T01:44:15.841Z,5.50
2019-05-21T01:45:15.825Z,4.60
2019-05-21T01:46:15.814Z,4.90
2019-05-21T01:47:15.803Z,4.90
2019-05-21T01:48:15.793Z,5.10
2019-05-21T01:49:15.784Z,4.90
2019-05-21T01:50:15.773Z,4.80
2019-05-21T01:51:15.761Z,5.00
2019-05-21T01:52:15.751Z,4.70
2019-05-21T01:53:15.736Z,5.00
2019-05-21T01:54:15.734Z,4.80
2019-05-21T01:55:15.724Z,4.80
2019-05-21T01:56:15.720Z,4.60
2019-05-21T01:57:15.699Z,4.70
2019-05-21T01:58:15.683Z,4.80
2019-05-21T01:59:15.672Z,5.00
2019-05-21T02:00:15.659Z,4.80
2019-05-21T02:01:15.649Z,4.80
2019-05-21T02:02:15.689Z,5.10
2019-05-21T02:03:15.629Z,4.80
2019-05-21T02:04:15.619Z,4.90
2019-05-21T02:05:15.606Z,4.90
2019-05-21T02:06:15.593Z,4.90
2019-05-21T02:07:15.592Z,5.50
2019-05-21T02:08:15.581Z,4.70
2019-05-21T02:09:15.563Z,5.00
2019-05-21T02:10:15.551Z,4.80
2019-05-21T02:11:15.542Z,4.80
2019-05-21T02:12:15.534Z,4.90
2019-05-21T02:13:15.519Z,4.60
2019-05-21T02:14:15.506Z,4.80
2019-05-21T02:15:15.494Z,5.10
2019-05-21T02:16:15.488Z,4.90
2019-05-21T02:17:15.475Z,5.10
2019-05-21T02:18:15.465Z,4.60
2019-05-21T02:19:15.685Z,5.00
2019-05-21T02:20:15.459Z,4.80
2019-05-21T02:21:15.434Z,4.70
2019-05-21T02:22:15.420Z,4.80
2019-05-21T02:23:15.410Z,4.90
2019-05-21T02:24:15.401Z,4.40
2019-05-21T02:25:15.385Z,4.60
2019-05-21T02:26:15.375Z,4.40
2019-05-21T02:27:15.364Z,4.80
2019-05-21T02:28:15.355Z,4.80
2019-05-21T02:29:15.341Z,4.80
2019-05-21T02:30:15.338Z,4.50
2019-05-21T02:31:15.349Z,4.80
2019-05-21T02:32:15.312Z,4.60
2019-05-21T02:33:15.301Z,4.50
2019-05-21T02:34:15.294Z,4.40
2019-05-21T02:35:15.277Z,4.70
2019-05-21T02:36:15.271Z,4.60
2019-05-21T02:37:15.263Z,4.80
2019-05-21T02:38:15.245Z,4.50
2019-05-21T02:39:15.238Z,4.70
2019-05-21T02:40:15.225Z,4.40
2019-05-21T02:41:15.216Z,4.70
2019-05-21T02:42:15.210Z,4.50
2019-05-21T02:43:15.191Z,4.60
2019-05-21T02:44:15.180Z,4.60
2019-05-21T02:45:15.170Z,4.80
2019-05-21T02:46:15.164Z,4.50
2019-05-21T02:47:15.147Z,4.30
2019-05-21T02:48:15.137Z,4.70
2019-05-21T02:49:15.129Z,4.60
2019-05-21T02:50:15.115Z,4.50
2019-05-21T02:51:15.102Z,4.60
2019-05-21T02:52:15.094Z,4.70
2019-05-21T02:53:15.097Z,4.50
2019-05-21T02:54:15.077Z,4.50
2019-05-21T02:55:15.061Z,4.80
2019-05-21T02:56:15.047Z,4.30
2019-05-21T02:57:15.042Z,4.50
2019-05-21T02:58:15.032Z,4.70
2019-05-21T02:59:15.022Z,4.50
2019-05-21T03:00:15.005Z,4.70
2019-05-21T03:01:17.739Z,4.20
2019-05-21T03:02:14.986Z,4.40
2019-05-21T03:03:15.007Z,4.80
2019-05-21T03:04:14.962Z,4.90
2019-05-21T03:05:14.949Z,4.40
2019-05-21T03:06:15.242Z,4.70
2019-05-21T03:07:14.927Z,4.40
2019-05-21T03:08:14.918Z,4.60
2019-05-21T03:09:14.909Z,4.70
2019-05-21T03:10:14.895Z,4.40
2019-05-21T03:11:14.884Z,4.30
2019-05-21T03:12:14.875Z,4.60
2019-05-21T03:13:14.878Z,4.50
2019-05-21T03:14:14.854Z,4.20
2019-05-21T03:15:14.842Z,4.50
2019-05-21T03:16:14.834Z,4.50
2019-05-21T03:17:14.838Z,3.90
2019-05-21T03:18:14.818Z,4.10
2019-05-21T03:19:16.644Z,4.40
2019-05-21T03:20:14.796Z,4.10
2019-05-21T03:21:14.782Z,4.00
2019-05-21T03:22:14.772Z,4.30
2019-05-21T03:23:14.756Z,4.20
2019-05-21T03:24:14.746Z,4.10
2019-05-21T03:25:14.732Z,4.30
2019-05-21T03:26:14.722Z,4.20
2019-05-21T03:27:14.722Z,4.20
2019-05-21T03:28:14.702Z,4.20
2019-05-21T03:29:14.692Z,4.50
2019-05-21T03:30:14.683Z,4.70
2019-05-21T03:31:14.664Z,4.50
2019-05-21T03:32:14.653Z,4.30
2019-05-21T03:33:14.644Z,4.30
2019-05-21T03:34:14.643Z,4.30
2019-05-21T03:35:14.624Z,4.60
2019-05-21T03:36:31.875Z,4.30
2019-05-21T03:37:15.604Z,4.80
2019-05-21T03:38:14.585Z,4.40
2019-05-21T03:39:19.112Z,4.50
2019-05-21T03:40:14.578Z,4.20
2019-05-21T03:41:14.559Z,4.30
2019-05-21T03:42:14.550Z,4.60
2019-05-21T03:43:14.544Z,4.00
2019-05-21T03:44:14.521Z,4.40
2019-05-21T03:45:14.513Z,4.10
2019-05-21T03:46:14.500Z,4.10
2019-05-21T03:47:14.486Z,4.30
2019-05-21T03:48:14.476Z,4.40
2019-05-21T03:49:14.467Z,4.30
2019-05-21T03:50:14.454Z,4.10
2019-05-21T03:51:14.442Z,4.40
2019-05-21T03:52:14.430Z,4.20
2019-05-21T03:53:14.428Z,4.50
2019-05-21T03:54:14.410Z,4.50
2019-05-21T03:55:14.400Z,4.10
2019-05-21T03:56:14.390Z,4.40
2019-05-21T03:57:14.378Z,4.40
2019-05-21T03:58:14.363Z,4.30
2019-05-21T03:59:14.355Z,4.60
2019-05-21T04:00:14.353Z,4.20
2019-05-21T04:01:14.340Z,4.20
2019-05-21T04:02:14.323Z,4.20
2019-05-21T04:03:14.339Z,3.80
2019-05-21T04:04:14.299Z,4.10
2019-05-21T04:05:14.285Z,4.40
2019-05-21T04:06:14.276Z,4.10
2019-05-21T04:07:14.271Z,4.10
2019-05-21T04:08:14.335Z,4.40
2019-05-21T04:09:14.244Z,4.20
2019-05-21T04:10:14.235Z,4.30
2019-05-21T04:11:14.242Z,4.20
2019-05-21T04:12:14.207Z,4.60
2019-05-21T04:13:14.199Z,4.10
2019-05-21T04:14:14.192Z,4.10
2019-05-21T04:15:14.175Z,4.00
2019-05-21T04:16:14.165Z,4.20
2019-05-21T04:17:14.153Z,4.20
2019-05-21T04:18:14.142Z,4.10
2019-05-21T04:19:14.135Z,4.20
2019-05-21T04:20:14.123Z,3.90
2019-05-21T04:21:14.110Z,4.20
2019-05-21T04:22:14.124Z,3.90
2019-05-21T04:23:14.090Z,4.00
2019-05-21T04:24:14.079Z,4.10
2019-05-21T04:25:14.068Z,4.00
2019-05-21T04:26:14.058Z,4.00
2019-05-21T04:27:14.043Z,4.00
2019-05-21T04:28:14.031Z,4.00
2019-05-21T04:29:14.023Z,4.10
2019-05-21T04:30:14.018Z,3.90
2019-05-21T04:31:14.006Z,3.80
2019-05-21T04:32:14.010Z,4.20
2019-05-21T04:33:13.985Z,4.20
2019-05-21T04:34:13.971Z,4.30
2019-05-21T04:35:14.000Z,3.90
2019-05-21T04:36:13.954Z,4.00
2019-05-21T04:37:17.262Z,3.90
2019-05-21T04:38:13.925Z,4.40
2019-05-21T04:39:13.919Z,3.90
2019-05-21T04:40:13.914Z,4.20
2019-05-21T04:41:13.894Z,4.30
2019-05-21T04:42:13.881Z,4.10
2019-05-21T04:43:13.878Z,3.80
2019-05-21T04:44:13.869Z,3.80
2019-05-21T04:45:13.856Z,4.00
2019-05-21T04:46:13.839Z,4.40
2019-05-21T04:47:13.858Z,4.20
2019-05-21T04:48:13.834Z,3.80
2019-05-21T04:49:13.827Z,3.80
2019-05-21T04:50:13.794Z,3.80
2019-05-21T04:51:14.331Z,4.10
2019-05-21T04:52:13.778Z,4.00
2019-05-21T04:53:13.760Z,3.70
2019-05-21T04:54:13.747Z,3.90
2019-05-21T04:55:13.739Z,3.80
2019-05-21T04:56:13.734Z,4.00
2019-05-21T04:57:13.718Z,3.60
2019-05-21T04:58:13.710Z,3.70
2019-05-21T04:59:13.693Z,3.90
2019-05-21T05:00:13.684Z,4.00
2019-05-21T05:01:13.671Z,4.10
2019-05-21T05:02:13.665Z,3.60
2019-05-21T05:03:13.655Z,4.10
2019-05-21T05:04:13.639Z,3.70
2019-05-21T05:05:13.639Z,3.90
2019-05-21T05:06:13.616Z,3.70
2019-05-21T05:07:27.088Z,4.30
2019-05-21T05:08:14.596Z,3.70
2019-05-21T05:09:13.586Z,3.80
2019-05-21T05:10:13.607Z,3.80
2019-05-21T05:11:13.563Z,3.90
2019-05-21T05:12:13.550Z,4.00
2019-05-21T05:13:13.547Z,4.00
2019-05-21T05:14:13.526Z,3.70
2019-05-21T05:15:13.519Z,3.90
2019-05-21T05:16:13.504Z,3.90
2019-05-21T05:17:13.495Z,4.00
2019-05-21T05:18:13.493Z,3.80
2019-05-21T05:19:13.474Z,3.60
2019-05-21T05:20:13.470Z,3.70
2019-05-21T05:21:13.453Z,3.60
2019-05-21T05:22:13.438Z,4.10
2019-05-21T05:23:13.431Z,3.70
2019-05-21T05:24:13.417Z,3.90
2019-05-21T05:25:13.414Z,4.10
2019-05-21T05:26:13.405Z,3.90
2019-05-21T05:27:13.394Z,4.00
2019-05-21T05:28:13.372Z,4.40
2019-05-21T05:29:13.362Z,4.10
2019-05-21T05:30:13.357Z,3.90
2019-05-21T05:31:15.466Z,4.20
2019-05-21T05:32:13.338Z,4.00
2019-05-21T05:33:13.318Z,4.10
2019-05-21T05:34:13.308Z,3.90
2019-05-21T05:35:13.296Z,3.60
2019-05-21T05:36:13.284Z,4.00
2019-05-21T05:37:13.273Z,4.10
2019-05-21T05:38:13.263Z,3.80
2019-05-21T05:39:13.254Z,4.10
2019-05-21T05:40:13.693Z,3.70
2019-05-21T05:41:13.231Z,3.80
2019-05-21T05:42:13.219Z,4.00
2019-05-21T05:43:13.208Z,4.00
2019-05-21T05:44:13.199Z,4.00
2019-05-21T05:45:13.187Z,3.90
2019-05-21T05:46:13.179Z,3.60
2019-05-21T05:47:13.166Z,3.90
2019-05-21T05:48:13.162Z,4.20
2019-05-21T05:49:13.148Z,3.60
2019-05-21T05:50:13.141Z,4.30
2019-05-21T05:51:13.127Z,3.60
2019-05-21T05:52:13.116Z,4.10
2019-05-21T05:53:13.109Z,4.00
2019-05-21T05:54:13.091Z,4.00
2019-05-21T05:55:13.081Z,3.80
2019-05-21T05:56:13.070Z,4.10
2019-05-21T05:57:13.058Z,3.90
2019-05-21T05:58:13.050Z,3.90
2019-05-21T05:59:14.422Z,4.20
2019-05-21T06:00:13.032Z,4.10
2019-05-21T06:01:13.018Z,4.10
2019-05-21T06:02:13.012Z,3.80
2019-05-21T06:03:12.998Z,4.50
2019-05-21T06:04:12.985Z,3.90
2019-05-21T06:05:12.976Z,4.00
2019-05-21T06:06:12.967Z,4.30
2019-05-21T06:07:12.957Z,4.40
2019-05-21T06:08:12.941Z,3.80
2019-05-21T06:09:12.931Z,4.50
2019-05-21T06:10:12.917Z,4.60
2019-05-21T06:11:12.910Z,4.70
2019-05-21T06:12:12.896Z,4.20
2019-05-21T06:13:12.887Z,4.20
2019-05-21T06:14:12.875Z,4.10
2019-05-21T06:15:12.864Z,4.10
2019-05-21T06:16:12.853Z,4.00
2019-05-21T06:17:12.845Z,4.40
2019-05-21T06:18:12.834Z,4.30
2019-05-21T06:19:12.829Z,4.40
2019-05-21T06:20:12.813Z,4.60
2019-05-21T06:21:12.800Z,4.10
2019-05-21T06:22:12.789Z,4.40
2019-05-21T06:23:12.780Z,4.40
2019-05-21T06:24:13.662Z,4.30
2019-05-21T06:25:12.758Z,4.50
2019-05-21T06:26:12.753Z,4.30
2019-05-21T06:27:12.738Z,4.50
2019-05-21T06:28:12.727Z,4.20
2019-05-21T06:29:12.714Z,3.90
2019-05-21T06:30:12.707Z,4.30
2019-05-21T06:31:12.694Z,4.20
2019-05-21T06:32:12.681Z,4.40
2019-05-21T06:33:12.671Z,4.40
2019-05-21T06:34:12.669Z,4.20
2019-05-21T06:35:12.653Z,4.00
2019-05-21T06:36:12.671Z,4.10
2019-05-21T06:37:12.627Z,4.20
2019-05-21T06:38:17.588Z,4.30
2019-05-21T06:39:13.604Z,4.30
2019-05-21T06:40:12.596Z,4.30
2019-05-21T06:41:12.613Z,3.90
2019-05-21T06:42:12.583Z,4.40
2019-05-21T06:43:12.562Z,4.10
2019-05-21T06:44:12.553Z,4.00
2019-05-21T06:45:12.542Z,3.90
2019-05-21T06:46:12.540Z,4.50
2019-05-21T06:47:12.520Z,4.30
2019-05-21T06:48:12.509Z,4.60
2019-05-21T06:49:12.501Z,4.10
2019-05-21T06:50:12.488Z,4.10
2019-05-21T06:51:12.544Z,4.10
2019-05-21T06:52:12.466Z,4.20
2019-05-21T06:53:12.459Z,4.30
2019-05-21T06:54:12.493Z,4.30
2019-05-21T06:55:12.444Z,4.20
2019-05-21T06:56:12.421Z,4.30
2019-05-21T06:57:12.423Z,4.40
2019-05-21T06:58:12.402Z,4.60
2019-05-21T06:59:12.391Z,3.80
2019-05-21T07:00:12.378Z,4.00
2019-05-21T07:01:12.368Z,3.90
2019-05-21T07:02:12.360Z,4.20
2019-05-21T07:03:12.345Z,3.90
2019-05-21T07:04:12.340Z,4.20
2019-05-21T07:05:12.330Z,4.40
2019-05-21T07:06:12.321Z,4.30
2019-05-21T07:07:12.302Z,4.10
2019-05-21T07:08:12.359Z,4.30
2019-05-21T07:09:12.282Z,4.40
2019-05-21T07:10:12.270Z,4.50
2019-05-21T07:11:12.269Z,3.90
2019-05-21T07:12:12.316Z,4.10
2019-05-21T07:13:12.237Z,4.40
2019-05-21T07:14:12.226Z,4.10
2019-05-21T07:15:12.228Z,4.10
2019-05-21T07:16:12.204Z,4.10
2019-05-21T07:17:12.194Z,4.30
2019-05-21T07:18:12.182Z,4.40
2019-05-21T07:19:12.172Z,4.50
2019-05-21T07:20:12.203Z,4.20
2019-05-21T07:21:12.150Z,4.10
2019-05-21T07:22:13.453Z,4.60
2019-05-21T07:23:12.127Z,4.20
2019-05-21T07:24:12.116Z,4.30
2019-05-21T07:25:12.106Z,4.40
2019-05-21T07:26:12.102Z,4.30
2019-05-21T07:27:12.089Z,4.10
2019-05-21T07:28:12.080Z,4.10
2019-05-21T07:29:12.072Z,4.30
2019-05-21T07:30:12.051Z,4.00
2019-05-21T07:31:12.041Z,4.40
2019-05-21T07:32:12.030Z,3.90
2019-05-21T07:33:12.070Z,3.90
2019-05-21T07:34:12.046Z,3.70
2019-05-21T07:35:12.014Z,3.90
2019-05-21T07:36:11.987Z,4.00
2019-05-21T07:37:11.975Z,4.30
2019-05-21T07:38:12.068Z,4.00
2019-05-21T07:39:11.957Z,4.00
2019-05-21T07:40:11.958Z,3.70
2019-05-21T07:41:11.933Z,3.80
2019-05-21T07:42:11.920Z,4.20
2019-05-21T07:43:11.968Z,3.80
2019-05-21T07:44:11.899Z,3.90
2019-05-21T07:45:11.891Z,4.00
2019-05-21T07:46:11.878Z,3.50
2019-05-21T07:47:11.868Z,3.80
2019-05-21T07:48:11.857Z,4.00
2019-05-21T07:49:11.941Z,3.80
2019-05-21T07:50:11.837Z,3.60
2019-05-21T07:51:11.897Z,3.90
2019-05-21T07:52:11.858Z,3.80
2019-05-21T07:53:11.802Z,3.70
2019-05-21T07:54:11.789Z,3.80
2019-05-21T07:55:11.793Z,3.90
2019-05-21T07:56:11.766Z,4.00
2019-05-21T07:57:11.757Z,3.90
2019-05-21T07:58:11.745Z,3.90
2019-05-21T07:59:11.737Z,3.80
2019-05-21T08:00:11.723Z,3.60
2019-05-21T08:01:11.714Z,4.00
2019-05-21T08:02:11.705Z,3.90
2019-05-21T08:03:11.796Z,3.30
2019-05-21T08:04:11.719Z,3.50
2019-05-21T08:05:11.672Z,3.70
2019-05-21T08:06:14.832Z,3.30
2019-05-21T08:07:11.648Z,3.70
2019-05-21T08:08:11.645Z,3.70
2019-05-21T08:09:14.429Z,3.40
2019-05-21T08:10:11.617Z,3.70
2019-05-21T08:11:11.792Z,3.30
2019-05-21T08:12:36.857Z,3.60
2019-05-21T08:13:12.701Z,3.50
2019-05-21T08:14:11.584Z,3.40
2019-05-21T08:15:11.599Z,3.40
2019-05-21T08:16:11.570Z,3.60
2019-05-21T08:17:11.554Z,3.20
2019-05-21T08:18:11.550Z,3.30
2019-05-21T08:19:11.616Z,3.50
2019-05-21T08:20:11.537Z,3.60
2019-05-21T08:21:11.501Z,3.40
2019-05-21T08:22:11.493Z,2.90
2019-05-21T08:23:11.477Z,3.30
2019-05-21T08:24:11.469Z,3.60
2019-05-21T08:25:14.357Z,3.00
2019-05-21T08:26:11.481Z,3.30
2019-05-21T08:27:11.433Z,3.20
2019-05-21T08:28:11.423Z,3.20
2019-05-21T08:29:11.413Z,3.20
2019-05-21T08:30:11.401Z,3.30
2019-05-21T08:31:11.412Z,3.40
2019-05-21T08:32:11.379Z,3.30
2019-05-21T08:33:11.368Z,3.00
2019-05-21T08:34:11.357Z,3.20
2019-05-21T08:35:11.354Z,3.10
2019-05-21T08:36:11.370Z,3.20
2019-05-21T08:37:11.332Z,3.20
2019-05-21T08:38:11.326Z,2.90
2019-05-21T08:39:26.065Z,3.00
2019-05-21T08:40:12.299Z,3.00
2019-05-21T08:41:11.286Z,3.00
2019-05-21T08:42:11.287Z,3.10
2019-05-21T08:43:11.264Z,2.70
2019-05-21T08:44:11.254Z,2.70
2019-05-21T08:45:11.253Z,3.00
2019-05-21T08:46:11.232Z,2.90
2019-05-21T08:47:11.224Z,2.80
2019-05-21T08:48:11.213Z,2.80
2019-05-21T08:49:11.219Z,2.90
2019-05-21T08:50:11.192Z,3.00
2019-05-21T08:51:11.201Z,2.80
2019-05-21T08:52:11.169Z,2.90
2019-05-21T08:53:11.416Z,2.90
2019-05-21T08:54:11.172Z,3.00
2019-05-21T08:55:11.151Z,3.30
2019-05-21T08:56:11.128Z,3.00
2019-05-21T08:57:11.116Z,2.80
2019-05-21T08:58:11.110Z,2.60
2019-05-21T08:59:11.096Z,2.70
2019-05-21T09:00:11.085Z,2.80
2019-05-21T09:01:11.076Z,2.90
2019-05-21T09:02:11.069Z,2.70
2019-05-21T09:03:11.075Z,3.00
2019-05-21T09:04:11.044Z,2.80
2019-05-21T09:05:11.031Z,2.90
2019-05-21T09:06:11.024Z,2.80
2019-05-21T09:07:11.017Z,2.80
2019-05-21T09:08:11.000Z,3.00
2019-05-21T09:09:11.017Z,2.90
2019-05-21T09:10:10.976Z,2.90
2019-05-21T09:11:10.965Z,2.90
2019-05-21T09:12:10.964Z,2.90
2019-05-21T09:13:10.966Z,2.70
2019-05-21T09:14:10.940Z,2.80
2019-05-21T09:15:10.923Z,2.90
2019-05-21T09:16:10.914Z,2.90
2019-05-21T09:17:10.911Z,3.10
2019-05-21T09:18:10.892Z,3.10
2019-05-21T09:19:10.887Z,2.70
2019-05-21T09:20:10.873Z,2.70
2019-05-21T09:21:10.867Z,2.80
2019-05-21T09:22:10.861Z,3.00
2019-05-21T09:23:10.841Z,3.00
2019-05-21T09:24:10.830Z,2.90
2019-05-21T09:25:10.826Z,3.10
2019-05-21T09:26:10.808Z,3.00
2019-05-21T09:27:10.806Z,2.80
2019-05-21T09:28:10.818Z,2.90
2019-05-21T09:29:10.780Z,3.00
2019-05-21T09:30:10.766Z,3.30
2019-05-21T09:31:10.760Z,3.00
2019-05-21T09:32:10.744Z,3.00
2019-05-21T09:33:10.733Z,3.10
2019-05-21T09:34:10.730Z,2.80
2019-05-21T09:35:10.713Z,3.00
2019-05-21T09:36:10.704Z,3.00
2019-05-21T09:37:19.188Z,3.30
2019-05-21T09:38:11.692Z,3.10
2019-05-21T09:39:10.668Z,2.90
2019-05-21T09:40:10.659Z,3.10
2019-05-21T09:41:10.657Z,2.90
2019-05-21T09:42:10.690Z,3.00
2019-05-21T09:43:10.626Z,2.90
2019-05-21T09:44:10.613Z,3.20
2019-05-21T09:45:10.610Z,3.00
2019-05-21T09:46:10.591Z,2.90
2019-05-21T09:47:10.579Z,3.10
2019-05-21T09:48:10.575Z,3.00
2019-05-21T09:49:10.558Z,3.00
2019-05-21T09:50:10.548Z,3.00
2019-05-21T09:51:10.537Z,3.30
2019-05-21T09:52:10.539Z,3.20
2019-05-21T09:53:10.516Z,2.80
2019-05-21T09:54:10.507Z,3.10
2019-05-21T09:55:10.495Z,3.20
2019-05-21T09:56:10.482Z,3.10
2019-05-21T09:57:10.514Z,3.10
2019-05-21T09:58:10.460Z,3.20
2019-05-21T09:59:10.461Z,2.80
2019-05-21T10:00:10.439Z,3.30
2019-05-21T10:01:10.427Z,3.10
2019-05-21T10:02:10.420Z,3.10
2019-05-21T10:03:10.408Z,3.00
2019-05-21T10:04:10.396Z,3.20
2019-05-21T10:05:10.385Z,3.20
2019-05-21T10:06:10.372Z,3.10
2019-05-21T10:07:10.365Z,3.30
2019-05-21T10:08:10.353Z,3.20
2019-05-21T10:09:10.348Z,3.20
2019-05-21T10:10:10.347Z,3.30
2019-05-21T10:11:10.319Z,3.40
2019-05-21T10:12:10.308Z,3.20
2019-05-21T10:13:10.296Z,3.10
2019-05-21T10:14:10.291Z,3.20
2019-05-21T10:15:10.276Z,3.10
2019-05-21T10:16:10.265Z,3.30
2019-05-21T10:17:10.278Z,3.40
2019-05-21T10:18:10.256Z,3.30
2019-05-21T10:19:10.238Z,3.20
2019-05-21T10:20:10.219Z,3.30
2019-05-21T10:21:10.213Z,3.00
2019-05-21T10:22:10.343Z,3.40
2019-05-21T10:23:10.190Z,3.20
2019-05-21T10:24:10.197Z,3.20
2019-05-21T10:25:10.241Z,3.30
2019-05-21T10:26:10.228Z,3.30
2019-05-21T10:27:10.145Z,3.20
2019-05-21T10:28:10.137Z,3.20
2019-05-21T10:29:10.122Z,3.10
2019-05-21T10:30:10.117Z,3.20
2019-05-21T10:31:10.102Z,3.30
2019-05-21T10:32:10.088Z,3.50
2019-05-21T10:33:10.083Z,3.30
2019-05-21T10:34:12.998Z,3.20
2019-05-21T10:35:10.060Z,3.00
2019-05-21T10:36:10.047Z,3.20
2019-05-21T10:37:10.171Z,3.20
2019-05-21T10:38:10.025Z,3.10
2019-05-21T10:39:10.023Z,3.30
2019-05-21T10:40:10.065Z,3.50
2019-05-21T10:41:09.998Z,3.20
2019-05-21T10:42:09.992Z,3.30
2019-05-21T10:43:09.971Z,3.30
2019-05-21T10:44:09.963Z,3.10
2019-05-21T10:45:09.952Z,3.20
2019-05-21T10:46:09.941Z,3.40
2019-05-21T10:47:09.928Z,3.60
2019-05-21T10:48:09.975Z,3.40
2019-05-21T10:49:09.908Z,3.30
2019-05-21T10:50:09.902Z,3.50
2019-05-21T10:51:10.157Z,3.40
2019-05-21T10:52:09.875Z,3.30
2019-05-21T10:53:09.863Z,3.30
2019-05-21T10:54:09.853Z,3.40
2019-05-21T10:55:09.840Z,3.20
2019-05-21T10:56:09.828Z,3.30
2019-05-21T10:57:09.818Z,3.30
2019-05-21T10:58:09.947Z,3.10
2019-05-21T10:59:09.804Z,3.20
2019-05-21T11:00:09.785Z,3.40
2019-05-21T11:01:09.777Z,3.30
2019-05-21T11:02:09.767Z,3.40
2019-05-21T11:03:09.752Z,3.40
2019-05-21T11:04:09.743Z,3.40
2019-05-21T11:05:09.731Z,3.40
2019-05-21T11:06:10.700Z,3.30
2019-05-21T11:07:09.712Z,3.20
2019-05-21T11:08:23.631Z,3.30
2019-05-21T11:09:10.692Z,3.20
2019-05-21T11:10:09.733Z,3.10
2019-05-21T11:11:09.672Z,3.50
2019-05-21T11:12:09.663Z,3.50
2019-05-21T11:13:09.645Z,3.50
2019-05-21T11:14:09.637Z,3.30
2019-05-21T11:15:09.622Z,3.40
2019-05-21T11:16:09.624Z,3.40
2019-05-21T11:17:09.601Z,3.50
2019-05-21T11:18:11.661Z,3.20
2019-05-21T11:19:09.592Z,3.20
2019-05-21T11:20:09.577Z,3.30
2019-05-21T11:21:09.567Z,3.20
2019-05-21T11:22:09.546Z,3.10
2019-05-21T11:23:09.538Z,3.40
2019-05-21T11:24:09.530Z,3.30
2019-05-21T11:25:09.517Z,3.30
2019-05-21T11:26:09.560Z,3.40
2019-05-21T11:27:09.498Z,3.50
2019-05-21T11:28:09.482Z,3.10
2019-05-21T11:29:09.487Z,3.10
2019-05-21T11:30:09.465Z,3.40
2019-05-21T11:31:09.447Z,3.00
2019-05-21T11:32:09.447Z,3.70
2019-05-21T11:33:09.426Z,3.30
2019-05-21T11:34:09.417Z,3.10
2019-05-21T11:35:09.407Z,3.00
2019-05-21T11:36:09.399Z,3.40
2019-05-21T11:37:09.384Z,3.40
2019-05-21T11:38:09.403Z,3.00
2019-05-21T11:39:09.362Z,3.40
2019-05-21T11:40:09.351Z,3.50
2019-05-21T11:41:09.484Z,3.00
2019-05-21T11:42:09.329Z,3.20
2019-05-21T11:43:09.329Z,3.40
2019-05-21T11:44:09.308Z,3.30
2019-05-21T11:45:09.386Z,3.00
2019-05-21T11:46:09.285Z,3.30
2019-05-21T11:47:09.277Z,3.40
2019-05-21T11:48:09.265Z,3.30
2019-05-21T11:49:09.254Z,3.40
2019-05-21T11:50:09.336Z,3.30
2019-05-21T11:51:12.538Z,3.20
2019-05-21T11:52:09.227Z,3.30
2019-05-21T11:53:09.212Z,3.50
2019-05-21T11:54:09.202Z,3.40
2019-05-21T11:55:09.195Z,3.20
2019-05-21T11:56:09.183Z,3.20
2019-05-21T11:57:09.167Z,3.30
2019-05-21T11:58:09.161Z,3.10
2019-05-21T11:59:09.158Z,3.10
2019-05-21T12:00:09.139Z,3.40
2019-05-21T12:01:09.125Z,3.70
2019-05-21T12:02:09.158Z,3.50
2019-05-21T12:03:09.125Z,3.30
2019-05-21T12:04:09.095Z,3.10
2019-05-21T12:05:09.080Z,3.20
2019-05-21T12:06:09.070Z,3.30
2019-05-21T12:07:09.062Z,3.60
2019-05-21T12:08:09.049Z,3.30
2019-05-21T12:09:09.038Z,3.20
2019-05-21T12:10:09.029Z,3.20
2019-05-21T12:11:09.016Z,3.20
2019-05-21T12:12:09.007Z,3.30
2019-05-21T12:13:08.993Z,3.20
2019-05-21T12:14:08.982Z,3.40
2019-05-21T12:15:09.110Z,3.10
2019-05-21T12:16:09.081Z,3.40
2019-05-21T12:17:08.950Z,3.40
2019-05-21T12:18:08.941Z,3.20
2019-05-21T12:19:08.931Z,3.70
2019-05-21T12:20:08.919Z,3.20
2019-05-21T12:21:08.908Z,3.10
2019-05-21T12:22:08.895Z,3.50
2019-05-21T12:23:08.885Z,3.60
2019-05-21T12:24:08.874Z,3.90
2019-05-21T12:25:08.869Z,3.40
2019-05-21T12:26:08.877Z,3.40
2019-05-21T12:27:08.846Z,3.20
2019-05-21T12:28:11.221Z,3.30
2019-05-21T12:29:08.820Z,3.20
2019-05-21T12:30:08.811Z,3.30
2019-05-21T12:31:08.803Z,3.20
2019-05-21T12:32:08.788Z,3.50
2019-05-21T12:33:08.776Z,3.50
2019-05-21T12:34:08.783Z,3.50
2019-05-21T12:35:08.763Z,3.60
2019-05-21T12:36:08.745Z,3.60
2019-05-21T12:37:08.737Z,3.40
2019-05-21T12:38:08.775Z,3.40
2019-05-21T12:39:14.342Z,3.70
2019-05-21T12:40:09.863Z,3.60
2019-05-21T12:41:08.691Z,4.10
2019-05-21T12:42:08.686Z,4.70
2019-05-21T12:43:08.668Z,5.20
2019-05-21T12:44:08.667Z,5.30
2019-05-21T12:45:08.652Z,6.00
2019-05-21T12:46:08.673Z,5.70
2019-05-21T12:47:09.851Z,6.30
2019-05-21T12:48:08.621Z,6.40
2019-05-21T12:49:08.615Z,5.10
2019-05-21T12:50:08.596Z,5.40
2019-05-21T12:51:08.687Z,4.80
2019-05-21T12:52:08.573Z,4.80
2019-05-21T12:53:08.569Z,5.30
2019-05-21T12:54:08.556Z,5.10
2019-05-21T12:55:08.541Z,4.90
2019-05-21T12:56:08.530Z,4.90
2019-05-21T12:57:08.519Z,5.20
2019-05-21T12:58:08.524Z,4.90
2019-05-21T12:59:08.505Z,5.10
2019-05-21T13:00:08.489Z,4.80
2019-05-21T13:01:08.478Z,4.80
2019-05-21T13:02:08.488Z,4.80
2019-05-21T13:03:08.453Z,4.50
2019-05-21T13:04:08.443Z,4.80
2019-05-21T13:05:11.427Z,4.80
2019-05-21T13:06:08.427Z,4.70
2019-05-21T13:07:08.410Z,4.50
2019-05-21T13:08:08.402Z,4.70
2019-05-21T13:09:08.542Z,4.50
2019-05-21T13:10:08.383Z,5.00
2019-05-21T13:11:08.372Z,5.00
2019-05-21T13:12:08.361Z,4.70
2019-05-21T13:13:08.352Z,4.40
2019-05-21T13:14:08.336Z,4.20
2019-05-21T13:15:08.327Z,4.80
2019-05-21T13:16:08.318Z,4.50
2019-05-21T13:17:08.329Z,4.60
2019-05-21T13:18:08.293Z,4.30